Aviation Digital Data Service (ADDS)

Output produced by METARs form (0214 UTC 08 July 2015)
found at http://aviationweather.gov/adds/metars/
 
KTOL 072340Z 0800/0824 31009KT P6SM SCT015 OVC035 
     FM080600 02006KT 6SM BR BKN100 OVC250 
     FM081500 05008KT P6SM SCT050 BKN200 
     FM082200 08006KT P6SM OVC050